Terminal Aerodrome Forecast
Issued by NWS

Home | Current Version | Previous Version | Text Only | Print | Product List | Glossary On
Versions: 1 2 3 4 5 6 7 8 9 10 11 12 13 14 15 16 17 18 19 20 21
000
FTUS45 KTFX 021421 AAA
TAFCTB
TAF AMD
KCTB 021421Z 0214/0312 10014G22KT 3SM -RA BR SCT007 BKN035
      TEMPO 0214/0216 2SM RA BR SCT005 BKN020
     FM021700 07010KT P6SM -SHRA SCT005 BKN040
     FM030800 10006KT 2SM BR OVC005=

USA.gov is the U.S. government's official web portal to all federal, state and local government web resources and services.